Time;durP1;ratioP1;P1;durP2;ratioP2;P2;SDS_P1;SDS_P2;PMS_P1;PMS_P2;Temp;Humidity;BMP_temperature;BMP_pressure;BME280_temperature;BME280_humidity;BME280_pressure;Samples;Min_cycle;Max_cycle;Signal;HPM_P1;HPM_P2
2022/04/08 00:00:21;;;;;;;5.07;2.17;;;6.20;99.90;;;;;;4978339;28;20053;-75
2022/04/08 00:02:49;;;;;;;4.47;1.27;;;6.20;99.90;;;;;;4994010;28;20862;-76
2022/04/08 00:05:14;;;;;;;3.75;1.30;;;6.20;99.90;;;;;;5014284;28;20148;-76
2022/04/08 00:07:40;;;;;;;9.35;2.58;;;6.20;99.90;;;;;;4995082;28;20110;-78
2022/04/08 00:10:06;;;;;;;4.05;1.60;;;6.30;99.90;;;;;;4994837;28;20094;-75
2022/04/08 00:12:32;;;;;;;4.97;1.70;;;6.30;99.90;;;;;;5014404;28;20056;-78
2022/04/08 00:14:58;;;;;;;4.95;1.92;;;6.30;99.90;;;;;;5014329;28;20091;-83
2022/04/08 00:17:25;;;;;;;8.63;1.70;;;6.30;99.90;;;;;;4996212;28;20119;-83
2022/04/08 00:19:51;;;;;;;4.72;1.50;;;6.20;99.90;;;;;;5013609;28;20057;-78
2022/04/08 00:22:18;;;;;;;5.10;1.95;;;6.20;99.90;;;;;;4996858;28;20059;-75
2022/04/08 00:24:44;;;;;;;2.25;1.55;;;6.10;99.90;;;;;;4996532;28;20684;-77
2022/04/08 00:27:10;;;;;;;3.80;1.25;;;6.10;99.90;;;;;;4996683;28;20049;-73
2022/04/08 00:29:35;;;;;;;1.95;1.00;;;6.10;99.90;;;;;;5015086;28;20045;-73
2022/04/08 00:32:01;;;;;;;3.13;0.80;;;6.10;99.90;;;;;;5014030;28;20364;-74
2022/04/08 00:34:27;;;;;;;2.05;1.42;;;6.00;99.90;;;;;;4996533;28;20782;-73
2022/04/08 00:36:54;;;;;;;1.13;0.70;;;6.00;99.90;;;;;;5014507;28;20053;-74
2022/04/08 00:39:21;;;;;;;2.63;0.70;;;6.00;99.90;;;;;;5013412;28;20858;-75
2022/04/08 00:41:47;;;;;;;4.28;1.48;;;6.00;99.90;;;;;;5015111;28;20046;-76
2022/04/08 00:44:13;;;;;;;0.45;0.45;;;5.90;99.90;;;;;;4997259;28;20049;-77
2022/04/08 00:46:38;;;;;;;0.57;0.45;;;5.80;99.90;;;;;;5015016;28;20826;-81
2022/04/08 00:49:05;;;;;;;0.50;0.50;;;5.70;99.90;;;;;;5019053;28;20054;-75
2022/04/08 00:51:34;;;;;;;0.90;0.90;;;5.60;99.90;;;;;;5018977;28;20037;-77
2022/04/08 00:54:00;;;;;;;1.27;0.85;;;5.60;99.90;;;;;;5016357;28;20075;-78
2022/04/08 00:56:28;;;;;;;5.00;1.85;;;5.50;99.90;;;;;;4995849;28;20504;-77
2022/04/08 00:58:55;;;;;;;3.45;0.80;;;5.50;99.90;;;;;;4981096;28;20077;-75
2022/04/08 01:01:23;;;;;;;3.47;1.45;;;5.50;99.90;;;;;;4999383;28;20107;-76
2022/04/08 01:03:52;;;;;;;1.70;0.88;;;5.50;99.90;;;;;;4998806;28;20088;-75
2022/04/08 01:06:20;;;;;;;0.60;0.60;;;5.40;99.90;;;;;;4980860;28;20054;-74
2022/04/08 01:08:51;;;;;;;2.15;1.33;;;5.40;99.90;;;;;;5014069;28;20081;-74
2022/04/08 01:11:17;;;;;;;4.70;1.20;;;5.30;99.90;;;;;;5014248;28;20163;-75
2022/04/08 01:13:43;;;;;;;2.33;1.08;;;5.40;99.90;;;;;;4986479;28;20111;-78
2022/04/08 01:16:09;;;;;;;3.65;1.75;;;5.40;99.90;;;;;;4998484;28;20049;-79
2022/04/08 01:18:36;;;;;;;2.95;1.40;;;5.30;99.90;;;;;;4998328;28;20056;-76
2022/04/08 01:21:05;;;;;;;4.28;1.30;;;5.20;99.90;;;;;;4997853;28;20216;-79
2022/04/08 01:23:34;;;;;;;1.85;0.90;;;5.20;99.90;;;;;;4986641;28;20045;-78
2022/04/08 01:26:03;;;;;;;5.30;1.60;;;5.20;99.90;;;;;;5022011;28;20044;-75
2022/04/08 01:28:28;;;;;;;2.38;1.02;;;5.10;99.90;;;;;;5038262;28;20091;-74
2022/04/08 01:30:55;;;;;;;2.63;1.30;;;5.00;99.90;;;;;;5014037;28;20120;-74
2022/04/08 01:33:20;;;;;;;4.07;1.38;;;5.00;99.90;;;;;;5022673;28;20171;-73
2022/04/08 01:35:46;;;;;;;1.92;1.05;;;4.90;99.90;;;;;;5019595;28;20768;-72
2022/04/08 01:38:11;;;;;;;1.05;0.73;;;4.90;99.90;;;;;;5019784;28;20054;-71
2022/04/08 01:40:37;;;;;;;2.13;1.40;;;4.90;99.90;;;;;;5037808;28;20045;-72
2022/04/08 01:43:03;;;;;;;1.92;0.93;;;4.90;99.90;;;;;;5002460;28;20487;-73
2022/04/08 01:45:28;;;;;;;2.58;1.20;;;4.90;99.90;;;;;;5017149;28;20037;-73
2022/04/08 01:47:54;;;;;;;1.83;1.13;;;4.90;99.90;;;;;;5017015;28;20568;-73
2022/04/08 01:50:21;;;;;;;3.85;1.02;;;4.90;99.90;;;;;;4999470;28;20053;-72
2022/04/08 01:52:47;;;;;;;1.90;1.17;;;4.90;99.90;;;;;;5012571;28;20041;-73
2022/04/08 01:55:14;;;;;;;4.80;1.17;;;5.00;99.90;;;;;;5005298;28;20056;-73
2022/04/08 01:57:41;;;;;;;2.88;1.10;;;5.00;99.90;;;;;;4997654;28;20054;-72
2022/04/08 02:00:08;;;;;;;1.88;1.25;;;5.00;99.90;;;;;;4979868;28;20081;-74
2022/04/08 02:02:34;;;;;;;4.75;1.30;;;5.00;99.90;;;;;;4979372;28;20061;-74
2022/04/08 02:05:00;;;;;;;4.15;1.70;;;4.90;99.90;;;;;;4997287;28;20107;-74
2022/04/08 02:07:26;;;;;;;4.88;1.38;;;4.90;99.90;;;;;;4980444;28;20737;-73
2022/04/08 02:09:52;;;;;;;6.00;1.33;;;4.90;99.90;;;;;;4979262;28;20073;-73
2022/04/08 02:12:18;;;;;;;2.25;1.17;;;4.90;99.90;;;;;;4996864;28;20054;-74
2022/04/08 02:14:44;;;;;;;3.30;1.50;;;4.80;99.90;;;;;;4998518;28;20394;-75
2022/04/08 02:17:09;;;;;;;7.65;1.35;;;4.80;99.90;;;;;;4980751;28;20123;-75
2022/04/08 02:19:35;;;;;;;1.50;1.00;;;4.80;99.90;;;;;;4994568;28;20147;-74
2022/04/08 02:22:00;;;;;;;9.60;2.22;;;4.80;99.90;;;;;;5037926;28;20086;-75
2022/04/08 02:24:26;;;;;;;2.78;1.70;;;4.80;99.90;;;;;;5037116;28;20143;-75
2022/04/08 02:26:52;;;;;;;4.93;1.40;;;4.80;99.90;;;;;;5024947;28;20056;-75
2022/04/08 02:29:18;;;;;;;5.20;1.50;;;4.80;99.90;;;;;;5008417;28;20499;-75
2022/04/08 02:31:43;;;;;;;3.38;1.48;;;4.80;99.90;;;;;;5035931;28;20049;-75
2022/04/08 02:34:09;;;;;;;4.70;1.77;;;4.80;99.90;;;;;;5036276;28;20471;-76
2022/04/08 02:36:35;;;;;;;5.57;1.45;;;4.70;99.90;;;;;;5019319;28;20045;-75
2022/04/08 02:39:00;;;;;;;3.85;1.15;;;4.70;99.90;;;;;;5036125;28;20048;-78
2022/04/08 02:41:26;;;;;;;5.30;1.13;;;4.70;99.90;;;;;;5036609;28;20695;-77
2022/04/08 02:43:52;;;;;;;4.03;1.45;;;4.70;99.90;;;;;;5020579;28;20049;-76
2022/04/08 02:46:17;;;;;;;2.55;0.98;;;4.60;99.90;;;;;;5015127;28;20472;-82
2022/04/08 02:48:43;;;;;;;7.60;1.92;;;4.60;99.90;;;;;;5016232;28;20051;-78
2022/04/08 02:51:08;;;;;;;5.47;1.65;;;4.50;99.90;;;;;;5016219;28;20053;-75
2022/04/08 02:53:34;;;;;;;2.72;1.13;;;4.50;99.90;;;;;;5015792;28;20037;-73
2022/04/08 02:55:59;;;;;;;13.45;2.67;;;4.40;99.90;;;;;;5016084;28;20053;-74
2022/04/08 02:58:27;;;;;;;1.92;0.80;;;4.40;99.90;;;;;;4997590;28;20045;-75
2022/04/08 03:00:52;;;;;;;4.43;1.17;;;4.40;99.90;;;;;;5015663;28;20207;-75
2022/04/08 03:03:18;;;;;;;2.17;1.17;;;4.40;99.90;;;;;;5012922;28;20041;-75
2022/04/08 03:05:44;;;;;;;2.83;1.40;;;4.40;99.90;;;;;;4997436;28;20088;-80
2022/04/08 03:08:09;;;;;;;5.10;2.88;;;4.40;99.90;;;;;;4997977;28;20053;-78
2022/04/08 03:10:35;;;;;;;2.10;1.20;;;4.40;99.90;;;;;;4996953;28;20073;-75
2022/04/08 03:13:00;;;;;;;7.35;1.27;;;4.30;99.90;;;;;;5015471;28;20053;-74
2022/04/08 03:15:26;;;;;;;4.22;1.15;;;4.40;99.90;;;;;;5015926;28;20049;-75
2022/04/08 03:17:51;;;;;;;3.90;2.33;;;4.30;99.90;;;;;;5015135;28;20072;-75
2022/04/08 03:20:18;;;;;;;4.30;2.95;;;4.30;99.90;;;;;;5014842;28;20117;-74
2022/04/08 03:22:44;;;;;;;4.70;1.55;;;4.30;99.90;;;;;;5015754;28;20053;-75
2022/04/08 03:25:09;;;;;;;2.67;1.92;;;4.20;99.90;;;;;;4997765;28;20041;-74
2022/04/08 03:27:35;;;;;;;5.45;2.70;;;4.20;99.90;;;;;;4999317;28;20195;-73
2022/04/08 03:30:01;;;;;;;4.65;1.42;;;4.20;99.90;;;;;;5015114;28;20044;-73
2022/04/08 03:32:27;;;;;;;2.63;2.15;;;4.20;99.90;;;;;;5015460;28;20890;-73
2022/04/08 03:34:57;;;;;;;2.72;1.77;;;4.20;99.90;;;;;;4996649;28;20412;-72
2022/04/08 03:37:24;;;;;;;2.95;1.50;;;4.20;99.90;;;;;;5013189;28;20053;-73
2022/04/08 03:39:50;;;;;;;7.25;1.23;;;4.20;99.90;;;;;;5015288;28;20156;-73
2022/04/08 03:42:15;;;;;;;5.80;1.83;;;4.10;99.90;;;;;;4996436;28;20412;-73
2022/04/08 03:44:41;;;;;;;4.57;1.70;;;4.20;99.90;;;;;;4997050;28;20124;-75
2022/04/08 03:47:07;;;;;;;7.18;1.70;;;4.20;99.90;;;;;;4997350;28;20451;-74
2022/04/08 03:49:35;;;;;;;6.05;2.17;;;4.20;99.90;;;;;;4996954;28;20104;-75
2022/04/08 03:52:04;;;;;;;2.90;1.48;;;4.20;99.90;;;;;;5012898;28;20090;-74
2022/04/08 03:54:30;;;;;;;7.30;1.90;;;4.20;99.90;;;;;;5015372;28;20570;-74
2022/04/08 03:56:55;;;;;;;7.68;1.70;;;4.20;99.90;;;;;;5014597;28;20041;-73
2022/04/08 03:59:22;;;;;;;6.18;2.53;;;4.10;99.90;;;;;;5014821;28;20051;-74
2022/04/08 04:01:49;;;;;;;4.60;2.20;;;4.10;99.90;;;;;;5014476;28;20140;-74
2022/04/08 04:04:15;;;;;;;8.55;2.70;;;4.40;99.90;;;;;;5015149;28;20647;-74
2022/04/08 04:06:41;;;;;;;13.77;1.90;;;4.00;99.90;;;;;;4997455;28;20041;-75
2022/04/08 04:09:06;;;;;;;6.85;2.63;;;4.00;99.90;;;;;;4996617;28;20081;-75
2022/04/08 04:11:33;;;;;;;4.75;2.10;;;4.10;99.90;;;;;;4995836;28;20069;-73
2022/04/08 04:13:59;;;;;;;6.47;1.58;;;4.20;99.90;;;;;;5012364;28;20050;-74
2022/04/08 04:16:26;;;;;;;6.22;2.38;;;4.20;99.90;;;;;;4994135;28;20052;-74
2022/04/08 04:18:51;;;;;;;2.53;1.67;;;4.40;99.90;;;;;;4994973;28;20162;-73
2022/04/08 04:21:17;;;;;;;5.43;1.80;;;3.60;99.90;;;;;;5012124;28;20033;-74
2022/04/08 04:23:43;;;;;;;2.83;1.95;;;4.50;99.90;;;;;;5012056;28;20046;-74
2022/04/08 04:26:08;;;;;;;5.07;1.67;;;4.50;99.90;;;;;;4994887;28;20134;-74
2022/04/08 04:28:34;;;;;;;6.55;2.40;;;4.50;99.90;;;;;;5014790;28;20144;-73
2022/04/08 04:31:01;;;;;;;3.42;1.30;;;4.20;99.90;;;;;;5012181;28;20590;-73
2022/04/08 04:33:27;;;;;;;2.08;1.20;;;4.40;99.90;;;;;;5012637;28;20037;-73
2022/04/08 04:35:52;;;;;;;1.88;1.25;;;4.40;99.90;;;;;;5014096;28;20045;-73
2022/04/08 04:38:18;;;;;;;1.42;1.08;;;4.30;99.90;;;;;;4996041;28;20512;-73
2022/04/08 04:40:43;;;;;;;2.00;1.35;;;4.30;99.90;;;;;;5014317;28;20056;-73
2022/04/08 04:43:09;;;;;;;1.08;1.00;;;4.30;99.90;;;;;;4996323;28;20042;-74
2022/04/08 04:45:37;;;;;;;2.00;1.20;;;4.20;99.90;;;;;;4992457;28;20841;-73
2022/04/08 04:48:04;;;;;;;0.80;0.73;;;4.10;99.90;;;;;;4994139;28;20052;-74
2022/04/08 04:50:29;;;;;;;2.13;1.45;;;4.10;99.90;;;;;;4994676;28;20053;-74
2022/04/08 04:52:55;;;;;;;2.00;1.00;;;4.10;99.90;;;;;;4993628;28;20112;-74
2022/04/08 04:55:21;;;;;;;1.88;1.30;;;4.00;99.90;;;;;;5011872;28;20096;-74
2022/04/08 04:57:46;;;;;;;1.30;1.00;;;4.00;99.90;;;;;;5011061;28;20123;-74
2022/04/08 05:00:12;;;;;;;1.25;0.82;;;4.00;99.90;;;;;;5010876;28;20041;-74
2022/04/08 05:02:38;;;;;;;2.33;0.88;;;4.00;99.90;;;;;;5011038;28;20620;-74
2022/04/08 05:05:04;;;;;;;4.68;1.30;;;4.00;99.90;;;;;;4993343;28;20142;-71
2022/04/08 05:07:30;;;;;;;1.80;1.33;;;4.00;99.90;;;;;;4993600;28;20443;-74
2022/04/08 05:09:55;;;;;;;3.33;0.90;;;4.00;99.90;;;;;;5010856;28;20089;-74
2022/04/08 05:12:21;;;;;;;6.78;1.08;;;4.00;99.90;;;;;;4993192;28;20050;-74
2022/04/08 05:14:46;;;;;;;2.03;1.20;;;3.10;99.90;;;;;;4993868;28;20110;-74
2022/04/08 05:17:12;;;;;;;2.20;1.00;;;3.90;99.90;;;;;;5012178;28;20736;-73
2022/04/08 05:19:38;;;;;;;1.55;0.90;;;4.00;99.90;;;;;;4993743;28;20049;-74
2022/04/08 05:22:03;;;;;;;3.15;1.10;;;3.90;99.90;;;;;;5011584;28;20029;-75
2022/04/08 05:24:29;;;;;;;1.30;1.15;;;3.90;99.90;;;;;;5010617;28;20782;-74
2022/04/08 05:26:54;;;;;;;2.63;1.13;;;3.90;99.90;;;;;;5010395;28;20131;-75
2022/04/08 05:29:20;;;;;;;0.90;0.90;;;3.90;99.90;;;;;;5010540;28;20053;-74
2022/04/08 05:31:47;;;;;;;0.63;0.63;;;3.90;99.90;;;;;;4996483;28;20057;-75
2022/04/08 05:34:13;;;;;;;2.40;1.10;;;3.90;99.90;;;;;;5013194;28;20049;-75
2022/04/08 05:36:38;;;;;;;2.65;1.27;;;4.00;99.90;;;;;;5014309;28;20049;-75
2022/04/08 05:39:04;;;;;;;1.67;1.05;;;4.00;99.90;;;;;;5015017;28;20048;-74
2022/04/08 05:41:29;;;;;;;6.65;2.33;;;4.00;99.90;;;;;;5013657;28;20042;-77
2022/04/08 05:43:55;;;;;;;5.22;1.10;;;4.10;99.90;;;;;;4996434;28;21012;-75
2022/04/08 05:46:20;;;;;;;4.03;1.10;;;4.20;99.90;;;;;;4993474;28;20052;-74
2022/04/08 05:48:46;;;;;;;4.32;1.23;;;4.30;99.90;;;;;;5013860;28;20046;-74
2022/04/08 05:51:11;;;;;;;1.58;1.20;;;4.40;99.90;;;;;;4996083;28;20815;-75
2022/04/08 05:53:37;;;;;;;5.22;1.25;;;4.40;99.90;;;;;;4995867;28;20049;-75
2022/04/08 05:56:03;;;;;;;1.10;1.00;;;4.50;99.90;;;;;;5013048;28;20045;-75
2022/04/08 05:58:29;;;;;;;1.33;1.25;;;4.50;99.90;;;;;;5013751;28;20096;-76
2022/04/08 06:00:55;;;;;;;3.67;1.50;;;4.60;99.90;;;;;;5013455;28;20057;-74
2022/04/08 06:03:20;;;;;;;3.55;1.50;;;4.50;99.90;;;;;;5012346;28;20045;-75
2022/04/08 06:05:46;;;;;;;2.95;1.38;;;4.60;99.90;;;;;;5013165;28;20041;-76
2022/04/08 06:08:11;;;;;;;2.58;1.73;;;4.60;99.90;;;;;;5013493;28;20037;-76
2022/04/08 06:10:37;;;;;;;4.68;1.55;;;4.60;99.90;;;;;;5012518;28;20627;-76
2022/04/08 06:13:03;;;;;;;6.90;1.25;;;4.60;99.90;;;;;;5013454;28;20081;-76
2022/04/08 06:15:29;;;;;;;3.90;1.73;;;4.60;99.90;;;;;;5012567;28;20209;-75
2022/04/08 06:17:55;;;;;;;3.97;1.60;;;4.60;99.90;;;;;;4995595;28;20115;-76
2022/04/08 06:20:21;;;;;;;2.70;1.70;;;4.70;99.90;;;;;;5013651;28;20045;-77
2022/04/08 06:22:48;;;;;;;3.70;1.40;;;4.70;99.90;;;;;;4995128;28;20054;-75
2022/04/08 06:25:19;;;;;;;7.22;3.38;;;4.80;99.90;;;;;;4995953;28;20056;-74
2022/04/08 06:27:53;;;;;;;6.00;1.50;;;4.80;99.90;;;;;;5015822;28;20083;-76
2022/04/08 06:30:19;;;;;;;2.47;1.60;;;4.80;99.90;;;;;;5012311;28;20140;-75
2022/04/08 06:32:45;;;;;;;3.63;1.70;;;4.90;99.90;;;;;;5013943;28;20053;-77
2022/04/08 06:35:11;;;;;;;3.40;1.48;;;4.90;99.90;;;;;;5017885;28;20056;-76
2022/04/08 06:37:37;;;;;;;4.35;1.45;;;5.00;99.90;;;;;;5017439;28;20049;-79
2022/04/08 06:40:07;;;;;;;2.10;1.35;;;5.00;99.90;;;;;;5017815;28;20099;-76
2022/04/08 06:42:33;;;;;;;1.67;1.10;;;5.00;99.90;;;;;;4999975;28;20061;-76
2022/04/08 06:44:59;;;;;;;2.85;1.52;;;5.10;99.90;;;;;;4999575;28;20055;-76
2022/04/08 06:47:25;;;;;;;1.60;1.50;;;5.20;99.90;;;;;;4998353;28;20531;-76
2022/04/08 06:49:51;;;;;;;1.90;1.40;;;5.30;99.90;;;;;;5016736;28;20053;-75
2022/04/08 06:52:17;;;;;;;2.40;1.33;;;5.30;99.90;;;;;;4999246;28;20037;-76
2022/04/08 06:54:42;;;;;;;2.47;1.20;;;5.40;99.90;;;;;;5000338;28;20080;-75
2022/04/08 06:57:08;;;;;;;2.65;1.90;;;5.50;99.90;;;;;;5014367;28;20056;-76
2022/04/08 06:59:35;;;;;;;2.95;1.50;;;5.50;99.90;;;;;;4997675;28;20041;-76
2022/04/08 07:02:01;;;;;;;2.08;1.50;;;5.60;99.90;;;;;;5013114;28;20049;-77
2022/04/08 07:04:27;;;;;;;4.65;1.83;;;5.70;99.90;;;;;;5016982;28;20134;-76
2022/04/08 07:06:53;;;;;;;2.25;1.40;;;5.80;99.90;;;;;;4997887;28;20055;-75
2022/04/08 07:09:19;;;;;;;2.53;1.52;;;5.90;99.90;;;;;;5016267;28;20053;-77
2022/04/08 07:11:46;;;;;;;4.15;2.20;;;6.00;99.90;;;;;;4998059;28;20065;-75
2022/04/08 07:14:12;;;;;;;3.35;1.40;;;6.10;99.90;;;;;;4998469;28;20775;-75
2022/04/08 07:16:38;;;;;;;3.53;1.30;;;6.20;99.90;;;;;;5015892;28;20763;-75
2022/04/08 07:19:04;;;;;;;4.47;1.55;;;6.30;99.90;;;;;;5016336;28;20136;-75
2022/04/08 07:21:29;;;;;;;1.85;1.65;;;6.50;99.90;;;;;;5016333;28;20053;-74
2022/04/08 07:23:55;;;;;;;2.35;1.40;;;7.00;99.90;;;;;;5017150;28;20488;-76
2022/04/08 07:26:21;;;;;;;1.95;1.35;;;8.20;99.90;;;;;;5017573;28;20417;-76
2022/04/08 07:28:47;;;;;;;2.28;1.65;;;9.10;99.90;;;;;;5017200;28;20217;-76
2022/04/08 07:31:13;;;;;;;4.72;1.70;;;10.00;99.90;;;;;;5017577;28;20057;-78
2022/04/08 07:33:39;;;;;;;2.75;1.48;;;10.40;99.90;;;;;;5017186;28;20041;-77
2022/04/08 07:36:05;;;;;;;2.38;1.27;;;9.70;99.90;;;;;;5016354;28;20103;-76
2022/04/08 07:38:31;;;;;;;5.20;1.95;;;9.20;99.90;;;;;;4997743;28;20053;-75
2022/04/08 07:41:00;;;;;;;1.02;0.95;;;9.20;99.90;;;;;;5009478;28;20037;-77
2022/04/08 07:43:26;;;;;;;1.05;0.88;;;9.70;99.90;;;;;;5012186;28;20049;-76
2022/04/08 07:45:51;;;;;;;1.17;0.82;;;10.50;99.90;;;;;;5014169;28;20052;-76
2022/04/08 07:48:17;;;;;;;2.38;1.00;;;11.00;99.90;;;;;;5012229;28;20078;-78
2022/04/08 07:50:43;;;;;;;2.63;1.27;;;11.60;99.90;;;;;;4995039;28;20064;-75
2022/04/08 07:53:08;;;;;;;2.72;1.27;;;12.30;99.90;;;;;;5012798;28;20529;-78
2022/04/08 07:55:34;;;;;;;2.88;1.27;;;13.00;99.90;;;;;;4997781;28;20053;-78
2022/04/08 07:58:00;;;;;;;3.25;1.02;;;13.10;99.90;;;;;;4994687;28;21067;-75
2022/04/08 08:00:27;;;;;;;4.47;2.45;;;13.00;98.70;;;;;;5013098;28;20044;-76
2022/04/08 08:02:54;;;;;;;3.95;1.67;;;13.00;99.90;;;;;;5011258;28;20038;-76
2022/04/08 08:05:20;;;;;;;2.17;1.25;;;12.30;99.90;;;;;;4997916;28;20042;-78
2022/04/08 08:07:52;;;;;;;1.73;1.20;;;11.60;99.90;;;;;;5014711;28;20049;-76
2022/04/08 08:10:28;;;;;;;2.00;1.42;;;11.10;99.90;;;;;;4994176;28;20049;-79
2022/04/08 08:12:54;;;;;;;2.03;0.95;;;10.10;99.90;;;;;;4993923;28;20041;-78
2022/04/08 08:15:21;;;;;;;1.63;0.90;;;10.20;99.90;;;;;;5013854;28;20042;-79
2022/04/08 08:17:47;;;;;;;2.63;1.35;;;11.00;99.90;;;;;;5013414;28;20136;-77
2022/04/08 08:20:14;;;;;;;3.10;1.13;;;11.30;99.90;;;;;;4996115;28;20045;-75
2022/04/08 08:22:43;;;;;;;1.27;1.17;;;11.50;99.90;;;;;;5012443;28;20078;-78
2022/04/08 08:25:11;;;;;;;2.08;1.42;;;12.30;99.90;;;;;;5013199;28;20102;-75
2022/04/08 08:27:40;;;;;;;2.85;1.52;;;13.60;99.90;;;;;;4996474;28;20081;-77
2022/04/08 08:30:08;;;;;;;3.35;1.42;;;13.30;99.90;;;;;;5013716;28;20045;-77
2022/04/08 08:32:33;;;;;;;2.97;1.27;;;13.80;99.90;;;;;;5014915;28;20141;-78
2022/04/08 08:34:59;;;;;;;5.15;1.70;;;14.20;99.90;;;;;;5016494;28;20892;-78
2022/04/08 08:37:24;;;;;;;3.20;1.50;;;14.10;99.90;;;;;;5016093;28;20049;-78
2022/04/08 08:39:52;;;;;;;4.65;1.40;;;13.80;99.90;;;;;;5016342;28;20056;-78
2022/04/08 08:42:18;;;;;;;2.28;1.10;;;13.70;99.90;;;;;;4996321;28;20064;-79
2022/04/08 08:44:44;;;;;;;2.83;1.17;;;13.50;99.90;;;;;;5011666;28;20084;-80
2022/04/08 08:47:14;;;;;;;3.88;1.48;;;13.60;99.90;;;;;;5013296;28;20075;-76
2022/04/08 08:49:47;;;;;;;1.45;1.00;;;13.00;99.90;;;;;;5015406;28;20084;-78
2022/04/08 08:52:14;;;;;;;;;;;11.60;99.90;;;;;;4996494;28;20053;-78
2022/04/08 08:54:41;;;;;;;1.40;1.10;;;12.00;99.90;;;;;;4993642;28;20645;-78
2022/04/08 08:57:09;;;;;;;2.13;1.38;;;12.80;99.90;;;;;;5015124;28;20045;-80
2022/04/08 08:59:36;;;;;;;2.63;1.58;;;13.40;99.90;;;;;;4994902;28;20049;-78
2022/04/08 09:02:02;;;;;;;3.70;1.33;;;12.70;99.90;;;;;;5014499;28;20052;-77
2022/04/08 09:04:28;;;;;;;3.40;0.90;;;11.90;99.90;;;;;;5018548;28;20053;-77
2022/04/08 09:06:54;;;;;;;3.80;1.35;;;11.20;99.80;;;;;;5015978;28;20045;-77
2022/04/08 09:09:30;;;;;;;2.22;1.30;;;10.70;99.90;;;;;;4996693;28;20045;-80
2022/04/08 09:12:10;;;;;;;0.82;0.75;;;10.70;99.90;;;;;;5016495;28;20053;-79
2022/04/08 09:14:36;;;;;;;1.67;0.98;;;10.70;99.90;;;;;;4998018;28;20115;-79
2022/04/08 09:17:02;;;;;;;1.60;1.00;;;10.60;99.90;;;;;;5016469;28;20993;-78
2022/04/08 09:19:33;;;;;;;4.40;1.75;;;10.60;99.90;;;;;;5017747;28;20048;-80
2022/04/08 09:21:59;;;;;;;1.33;0.90;;;10.80;99.90;;;;;;5018388;28;20748;-80
2022/04/08 09:24:24;;;;;;;2.72;1.13;;;10.60;99.90;;;;;;4650112;28;10000035;-79
2022/04/08 09:26:54;;;;;;;3.05;1.00;;;10.60;99.90;;;;;;5026607;28;20162;-74
2022/04/08 09:29:21;;;;;;;2.05;1.15;;;10.90;99.90;;;;;;5011768;28;20042;-77
2022/04/08 09:31:56;;;;;;;2.95;1.00;;;11.90;99.90;;;;;;5000305;28;20421;-78
2022/04/08 09:34:22;;;;;;;2.80;1.30;;;12.50;97.40;;;;;;5014007;28;20045;-79
2022/04/08 09:36:48;;;;;;;1.88;0.90;;;12.50;99.90;;;;;;4997789;28;20049;-80
2022/04/08 09:39:14;;;;;;;7.00;1.52;;;11.90;99.90;;;;;;5014742;28;20727;-74
2022/04/08 09:41:42;;;;;;;2.45;0.98;;;11.30;99.90;;;;;;4995112;28;20053;-81
2022/04/08 09:44:09;;;;;;;2.45;2.00;;;11.20;99.90;;;;;;5011551;28;20037;-82
2022/04/08 09:46:36;;;;;;;1.38;1.20;;;10.80;99.90;;;;;;5013113;28;20045;-81
2022/04/08 09:49:06;;;;;;;2.50;1.75;;;10.80;99.90;;;;;;5013953;28;20099;-76
2022/04/08 09:51:39;;;;;;;3.08;1.60;;;11.00;99.90;;;;;;5013774;28;20064;-80
2022/04/08 09:54:14;;;;;;;;;;;10.90;99.90;;;;;;5010660;28;20052;-79
2022/04/08 09:56:43;;;;;;;2.70;1.38;;;10.40;99.90;;;;;;4994548;28;19964;-80
2022/04/08 09:59:13;;;;;;;2.15;1.48;;;10.10;99.90;;;;;;4995848;28;20772;-82
2022/04/08 10:01:42;;;;;;;5.20;1.50;;;9.90;99.90;;;;;;4994657;28;20179;-80
2022/04/08 10:04:08;;;;;;;4.45;2.42;;;9.70;99.90;;;;;;5011810;28;20045;-79
2022/04/08 10:06:35;;;;;;;4.05;1.20;;;9.90;99.90;;;;;;4995797;28;20052;-79
2022/04/08 10:09:03;;;;;;;2.20;1.20;;;10.90;99.90;;;;;;4994198;28;20064;-81
2022/04/08 10:11:34;;;;;;;6.10;1.45;;;13.20;99.90;;;;;;5013479;28;20053;-80
2022/04/08 10:14:12;;;;;;;3.55;1.42;;;12.80;99.90;;;;;;5012495;28;20159;-77
2022/04/08 10:16:39;;;;;;;3.55;1.50;;;13.20;97.70;;;;;;4997031;28;20469;-65
2022/04/08 10:19:07;;;;;;;3.80;1.27;;;13.30;99.90;;;;;;4995163;28;20045;-82
2022/04/08 10:21:38;;;;;;;4.25;1.63;;;13.80;93.50;;;;;;4997282;28;20049;-80
2022/04/08 10:24:13;;;;;;;1.42;1.05;;;14.80;99.60;;;;;;5000563;28;20481;-77
2022/04/08 10:26:58;;;;;;;5.05;3.20;;;15.10;95.80;;;;;;5017712;28;20081;-78
2022/04/08 10:29:24;;;;;;;3.13;1.15;;;15.40;92.10;;;;;;5034408;28;20049;-77
2022/04/08 10:31:57;;;;;;;1.80;1.00;;;15.80;95.20;;;;;;5037234;28;20048;-75
2022/04/08 10:34:23;;;;;;;7.18;1.38;;;16.00;92.50;;;;;;5020281;28;20523;-77
2022/04/08 10:36:49;;;;;;;1.90;1.20;;;16.10;99.90;;;;;;5036780;28;20147;-78
2022/04/08 10:39:17;;;;;;;3.53;1.23;;;16.10;99.90;;;;;;5037514;28;20044;-79
2022/04/08 10:41:57;;;;;;;2.40;0.90;;;16.00;96.90;;;;;;5031726;28;20056;-79
2022/04/08 10:44:32;;;;;;;1.70;0.98;;;15.60;97.90;;;;;;4979716;28;20054;-78
2022/04/08 10:47:03;;;;;;;1.67;1.33;;;15.50;88.30;;;;;;4981436;28;20069;-76
2022/04/08 10:49:28;;;;;;;3.40;1.10;;;15.20;95.70;;;;;;4986691;28;20124;-79
2022/04/08 10:51:54;;;;;;;1.67;1.13;;;14.20;85.90;;;;;;5026876;28;20078;-78
2022/04/08 10:54:20;;;;;;;5.57;1.50;;;13.50;97.70;;;;;;5000904;28;20060;-78
2022/04/08 10:56:57;;;;;;;3.45;1.20;;;12.70;95.50;;;;;;5018513;28;20045;-81
2022/04/08 10:59:27;;;;;;;2.58;1.30;;;12.40;96.60;;;;;;5018420;28;20132;-80
2022/04/08 11:01:58;;;;;;;2.67;1.13;;;12.10;99.90;;;;;;5005320;28;20085;-77
2022/04/08 11:04:27;;;;;;;3.25;1.02;;;12.80;96.30;;;;;;4997595;28;20205;-77
2022/04/08 11:06:53;;;;;;;1.45;0.95;;;11.50;98.00;;;;;;4980429;28;20058;-78
2022/04/08 11:09:19;;;;;;;1.25;1.15;;;11.30;97.90;;;;;;4981814;28;20092;-79
2022/04/08 11:11:49;;;;;;;1.23;0.85;;;11.50;99.50;;;;;;4981696;28;20046;-78
2022/04/08 11:14:16;;;;;;;3.13;1.40;;;11.50;97.30;;;;;;5003451;28;20048;-78
2022/04/08 11:16:42;;;;;;;1.38;1.10;;;11.50;96.60;;;;;;5009134;28;20460;-76
2022/04/08 11:19:11;;;;;;;1.77;1.13;;;11.60;96.40;;;;;;4999512;28;20049;-76
2022/04/08 11:21:38;;;;;;;3.33;1.52;;;11.40;95.80;;;;;;5018152;28;20045;-78
2022/04/08 11:24:05;;;;;;;1.85;1.25;;;11.50;99.20;;;;;;5000276;28;20477;-79
2022/04/08 11:26:41;;;;;;;3.28;1.08;;;11.30;99.90;;;;;;4999010;28;20045;-79
2022/04/08 11:29:10;;;;;;;3.47;1.42;;;10.90;99.70;;;;;;5013749;28;20060;-79
2022/04/08 11:31:39;;;;;;;3.33;1.15;;;10.50;99.90;;;;;;5004588;28;20055;-76
2022/04/08 11:34:05;;;;;;;3.63;1.70;;;10.10;99.90;;;;;;4997760;28;20124;-77
2022/04/08 11:36:31;;;;;;;5.45;2.00;;;9.80;99.90;;;;;;4996849;28;20686;-74
2022/04/08 11:38:57;;;;;;;6.15;1.42;;;9.50;99.90;;;;;;4998037;28;20053;-74
2022/04/08 11:41:23;;;;;;;2.45;1.30;;;9.40;99.90;;;;;;4997534;28;20060;-77
2022/04/08 11:43:49;;;;;;;4.88;1.20;;;9.60;99.90;;;;;;5016342;28;20115;-78
2022/04/08 11:46:16;;;;;;;3.78;1.60;;;9.90;99.90;;;;;;5006721;28;20793;-78
2022/04/08 11:48:42;;;;;;;1.83;0.93;;;9.90;99.90;;;;;;5018532;28;20064;-74
2022/04/08 11:51:09;;;;;;;3.83;1.20;;;9.80;99.90;;;;;;5018071;28;20045;-75
2022/04/08 11:53:46;;;;;;;2.85;1.83;;;9.80;99.90;;;;;;5017944;28;20625;-76
2022/04/08 11:56:19;;;;;;;3.03;1.27;;;9.70;99.90;;;;;;5033503;28;20123;-75
2022/04/08 11:59:04;;;;;;;1.63;0.80;;;9.50;99.90;;;;;;4994487;28;20123;-77
2022/04/08 12:01:35;;;;;;;2.03;1.17;;;9.50;99.90;;;;;;4991771;28;20048;-76
2022/04/08 12:04:03;;;;;;;1.77;1.00;;;9.50;99.90;;;;;;4992811;28;20056;-74
2022/04/08 12:06:34;;;;;;;3.83;1.38;;;9.60;99.90;;;;;;4997825;28;20103;-75
2022/04/08 12:09:00;;;;;;;7.57;1.60;;;9.80;99.90;;;;;;4990346;28;20064;-76
2022/04/08 12:11:26;;;;;;;4.03;1.33;;;10.00;99.90;;;;;;4998025;28;20071;-75
2022/04/08 12:13:56;;;;;;;2.92;1.33;;;10.10;99.90;;;;;;5011159;28;20148;-76
2022/04/08 12:16:22;;;;;;;1.73;1.40;;;10.30;99.90;;;;;;4990892;28;20583;-75
2022/04/08 12:18:52;;;;;;;2.58;1.30;;;10.30;99.90;;;;;;4993559;28;20052;-77
2022/04/08 12:21:26;;;;;;;2.88;1.10;;;10.40;99.90;;;;;;5009747;28;20053;-76
2022/04/08 12:23:53;;;;;;;2.42;1.40;;;10.40;99.90;;;;;;5011223;28;20367;-77
2022/04/08 12:26:19;;;;;;;3.65;1.30;;;10.40;99.90;;;;;;4995501;28;20108;-76
2022/04/08 12:28:45;;;;;;;2.67;1.27;;;10.50;99.90;;;;;;5025095;28;20847;-75
2022/04/08 12:31:17;;;;;;;1.42;0.95;;;10.60;99.90;;;;;;5034089;28;20053;-76
2022/04/08 12:33:43;;;;;;;3.50;1.75;;;10.40;99.90;;;;;;5029355;28;20400;-76
2022/04/08 12:36:10;;;;;;;2.25;1.17;;;10.30;99.90;;;;;;5010944;28;20045;-77
2022/04/08 12:38:40;;;;;;;1.70;1.60;;;10.20;99.90;;;;;;4995296;28;20055;-76
2022/04/08 12:41:07;;;;;;;5.80;1.75;;;10.30;99.90;;;;;;5001355;28;20045;-78
2022/04/08 12:43:33;;;;;;;2.10;1.05;;;10.40;99.90;;;;;;5011454;28;20045;-78
2022/04/08 12:45:59;;;;;;;1.75;1.10;;;10.60;99.90;;;;;;5013455;28;20052;-76
2022/04/08 12:48:24;;;;;;;1.65;1.40;;;10.80;99.90;;;;;;4995521;28;20076;-76
2022/04/08 12:50:50;;;;;;;3.70;1.20;;;11.00;99.90;;;;;;4995823;28;20092;-74